Accueil
METAR-TAF:

METAR-TAF

Aéroports :

Aéroport de Sarrebruck

Sarrebruck, Allemagne

latitude: 49-13N, longitude: 007-07E, altitude: 322 m

Observation

Le bulletin a été fait il y a 33 minutes, à 13:50 UTC
Vent 5 kt de direction variable
Température 25°C
Humidité 39%
Pression 1025 hPa
Visibilité 10 km ou plus
pas de nuages en-dessous de 1500 mètres et pas de cumulonimbus.

METAR: EDDR 221350Z VRB05KT CAVOK 25/10 Q1025 NOSIG

Heure: 16:23 (14:23 UTC)

Prévision

Le bulletin a été fait il y a 3 heures et 23 minutes, à 11:00 UTC
Prévision valable du 22 à 12 UTC au 23 à 12 UTC
Vent 7 kt de est/nord-est
Visibilité 10 km ou plus
pas de nuages en-dessous de 1500 mètres et pas de cumulonimbus.

TAF: EDDR 221100Z 2212/2312 07007KT CAVOK

Observations et prévisions météorologiques de plus de 4000 aéroports (messages METAR et TAF).

Les stations disponibles sont représentées par des disques jaunes et rouges sur la carte.

Passer la souris dessus pour voir le nom de la station.

Cliquer dessus pour voir les observations et prévisions météorologiques.

Pour changer de carte: cliquez sur les boutons verts avec une croix noire pour zoomer, sur le bouton vert avec un tiret pour effectuer un zoom arrière, ou sur les flèches vertes pour les cartes adjacentes.


METAR-TAF: